createdAt,value
2022-09-05T00:00:58.887Z,97537.94
2022-09-05T00:02:03.598Z,97542.47
2022-09-05T00:03:21.102Z,97536.75
2022-09-05T00:04:34.899Z,97547.09
2022-09-05T00:05:54.082Z,97536.75
2022-09-05T00:07:06.472Z,97532.50
2022-09-05T00:08:15.825Z,97536.97
2022-09-05T00:09:42.517Z,97536.19
2022-09-05T00:11:40.917Z,97536.97
2022-09-05T00:12:21.332Z,97535.97
2022-09-05T00:13:25.457Z,97532.28
2022-09-05T00:14:34.142Z,97535.16
2022-09-05T00:16:11.342Z,97537.66
2022-09-05T00:18:00.231Z,97532.03
2022-09-05T00:24:21.739Z,97525.72
2022-09-05T00:24:27.482Z,97535.47
2022-09-05T00:24:29.484Z,97529.19
2022-09-05T00:24:37.606Z,97524.94
2022-09-05T00:25:31.216Z,97530.09
2022-09-05T00:26:50.324Z,97526.41
2022-09-05T00:27:52.630Z,97522.63
2022-09-05T00:29:06.722Z,97525.25
2022-09-05T00:31:07.504Z,97526.63
2022-09-05T00:31:55.439Z,97524.34
2022-09-05T00:33:01.746Z,97531.25
2022-09-05T00:34:24.872Z,97525.97
2022-09-05T00:35:43.877Z,97525.97
2022-09-05T00:36:47.577Z,97524.81
2022-09-05T00:37:50.597Z,97525.03
2022-09-05T00:39:03.656Z,97524.81
2022-09-05T00:40:27.758Z,97519.06
2022-09-05T00:41:32.824Z,97525.97
2022-09-05T00:42:36.433Z,97527.19
2022-09-05T00:43:41.555Z,97524.94
2022-09-05T00:44:58.913Z,97524.34
2022-09-05T00:46:08.635Z,97530.66
2022-09-05T00:47:14.197Z,97531.25
2022-09-05T00:48:24.045Z,97524.34
2022-09-05T00:49:33.567Z,97521.72
2022-09-05T00:50:38.165Z,97523.56
2022-09-05T00:52:00.338Z,97528.03
2022-09-05T00:53:08.126Z,97528.94
2022-09-05T00:54:15.939Z,97531.56
2022-09-05T00:55:25.265Z,97525.56
2022-09-05T00:56:27.575Z,97531.19
2022-09-05T00:57:48.461Z,97528.34
2022-09-05T00:59:08.965Z,97530.97
2022-09-05T01:00:23.875Z,97524.88
2022-09-05T01:01:25.817Z,97530.97
2022-09-05T01:02:27.782Z,97527.31
2022-09-05T01:03:35.482Z,97527.88
2022-09-05T01:04:40.211Z,97524.81
2022-09-05T01:06:00.712Z,97532.25
2022-09-05T01:07:07.263Z,97526.19
2022-09-05T01:08:12.113Z,97525.38
2022-09-05T01:09:20.118Z,97524.56
2022-09-05T01:10:42.325Z,97525.38
2022-09-05T01:12:02.820Z,97526.19
2022-09-05T01:13:19.505Z,97519.88
2022-09-05T01:14:37.156Z,97525.97
2022-09-05T01:15:51.897Z,97518.84
2022-09-05T01:17:08.739Z,97525.97
2022-09-05T01:18:25.559Z,97529.19
2022-09-05T01:19:38.632Z,97534.44
2022-09-05T01:20:40.474Z,97520.13
2022-09-05T01:21:54.556Z,97525.38
2022-09-05T01:23:08.469Z,97523.34
2022-09-05T01:24:29.363Z,97524.34
2022-09-05T01:25:48.982Z,97524.81
2022-09-05T01:27:00.002Z,97527.31
2022-09-05T01:29:15.524Z,97533.16
2022-09-05T01:29:30.243Z,97525.03
2022-09-05T01:30:47.715Z,97527.88
2022-09-05T01:31:50.484Z,97527.31
2022-09-05T01:32:52.252Z,97525.72
2022-09-05T01:34:03.599Z,97534.63
2022-09-05T01:35:24.183Z,97527.31
2022-09-05T01:36:35.322Z,97526.88
2022-09-05T01:37:56.126Z,97532.47
2022-09-05T01:39:40.851Z,97532.25
2022-09-05T01:40:38.650Z,97534.78
2022-09-05T01:41:46.384Z,97523.41
2022-09-05T01:42:49.039Z,97528.94
2022-09-05T01:43:59.002Z,97528.69
2022-09-05T01:45:06.724Z,97521.59
2022-09-05T01:46:17.913Z,97522.41
2022-09-05T01:47:31.011Z,97525.03
2022-09-05T01:48:33.215Z,97522.03
2022-09-05T01:49:34.975Z,97525.72
2022-09-05T01:50:47.648Z,97523.28
2022-09-05T01:52:02.292Z,97528.56
2022-09-05T01:53:26.090Z,97529.34
2022-09-05T01:54:43.226Z,97519.63
2022-09-05T01:56:04.736Z,97529.16
2022-09-05T01:57:36.563Z,97526.50
2022-09-05T01:58:57.105Z,97525.25
2022-09-05T02:00:06.389Z,97518.59
2022-09-05T02:01:32.671Z,97519.19
2022-09-05T02:02:41.420Z,97519.88
2022-09-05T02:03:52.413Z,97520.88
2022-09-05T02:04:54.198Z,97519.28
2022-09-05T02:06:08.461Z,97524.31
2022-09-05T02:07:19.317Z,97519.28
2022-09-05T02:08:32.031Z,97525.34
2022-09-05T02:09:42.508Z,97524.56
2022-09-05T02:10:53.170Z,97526.94
2022-09-05T02:11:58.342Z,97521.34
2022-09-05T02:13:12.686Z,97522.94
2022-09-05T02:14:27.054Z,97524.41
2022-09-05T02:15:41.425Z,97518.13
2022-09-05T02:16:45.279Z,97519.50
2022-09-05T02:17:51.855Z,97521.09
2022-09-05T02:18:56.864Z,97523.50
2022-09-05T02:20:23.483Z,97517.44
2022-09-05T02:21:32.195Z,97510.34
2022-09-05T02:22:42.645Z,97520.88
2022-09-05T02:23:47.917Z,97516.66
2022-09-05T02:24:58.539Z,97512.97
2022-09-05T02:26:21.083Z,97515.03
2022-09-05T02:28:03.829Z,97517.09
2022-09-05T02:29:28.852Z,97518.19
2022-09-05T02:30:36.074Z,97511.34
2022-09-05T02:31:40.760Z,97514.34
2022-09-05T02:33:01.446Z,97515.34
2022-09-05T02:34:15.671Z,97512.72
2022-09-05T02:35:23.536Z,97520.63
2022-09-05T02:36:44.724Z,97515.34
2022-09-05T02:39:09.175Z,97504.81
2022-09-05T02:45:02.628Z,97513.16
2022-09-05T02:45:08.708Z,97510.75
2022-09-05T02:45:09.703Z,97509.94
2022-09-05T02:45:20.203Z,97505.50
2022-09-05T02:45:39.071Z,97507.31
2022-09-05T02:46:48.596Z,97512.34
2022-09-05T02:48:15.617Z,97508.34
2022-09-05T02:51:15.885Z,97509.03
2022-09-05T02:55:05.738Z,97507.72
2022-09-05T02:57:24.566Z,97511.59
2022-09-05T02:57:39.946Z,97507.34
2022-09-05T02:57:43.491Z,97507.81
2022-09-05T02:58:04.133Z,97512.19
2022-09-05T02:59:09.737Z,97513.19
2022-09-05T03:00:16.372Z,97516.41
2022-09-05T03:01:30.560Z,97505.88
2022-09-05T03:02:32.511Z,97510.13
2022-09-05T03:03:52.245Z,97506.47
2022-09-05T03:05:09.974Z,97507.03
2022-09-05T03:06:35.068Z,97502.81
2022-09-05T03:07:46.154Z,97496.75
2022-09-05T03:09:16.627Z,97496.97
2022-09-05T03:10:26.682Z,97506.13
2022-09-05T03:11:50.307Z,97500.59
2022-09-05T03:13:07.539Z,97495.34
2022-09-05T03:14:21.387Z,97498.06
2022-09-05T03:15:32.165Z,97495.53
2022-09-05T03:16:37.035Z,97499.63
2022-09-05T03:18:20.616Z,97502.47
2022-09-05T03:19:46.501Z,97501.69
2022-09-05T03:21:09.479Z,97496.75
2022-09-05T03:22:14.704Z,97504.44
2022-09-05T03:23:19.574Z,97500.34
2022-09-05T03:24:24.374Z,97494.66
2022-09-05T03:25:26.138Z,97498.66
2022-09-05T03:26:34.037Z,97489.81
2022-09-05T03:27:35.792Z,97497.59
2022-09-05T03:28:37.569Z,97491.16
2022-09-05T03:30:03.201Z,97487.69
2022-09-05T03:31:22.049Z,97489.09
2022-09-05T03:32:34.822Z,97489.47
2022-09-05T03:33:52.752Z,97491.84
2022-09-05T03:35:20.694Z,97492.44
2022-09-05T03:36:45.605Z,97494.84
2022-09-05T03:38:07.874Z,97487.75
2022-09-05T03:39:24.995Z,97493.28
2022-09-05T03:40:36.956Z,97491.06
2022-09-05T03:41:40.551Z,97489.22
2022-09-05T03:42:45.415Z,97485.78
2022-09-05T03:44:02.716Z,97490.47
2022-09-05T03:45:05.803Z,97484.63
2022-09-05T03:46:12.434Z,97485.91
2022-09-05T03:47:32.771Z,97484.63
2022-09-05T03:48:34.715Z,97485.06
2022-09-05T03:51:39.792Z,97485.66
2022-09-05T03:57:04.528Z,97489.09
2022-09-05T03:57:08.043Z,97493.91
2022-09-05T03:57:15.328Z,97494.50
2022-09-05T03:57:18.472Z,97488.84
2022-09-05T03:57:42.228Z,97493.34
2022-09-05T03:58:57.120Z,97485.91
2022-09-05T04:00:09.964Z,97490.34
2022-09-05T04:02:08.846Z,97489.69
2022-09-05T04:07:04.991Z,97494.13
2022-09-05T04:08:11.330Z,97499.06
2022-09-05T04:08:15.589Z,97494.22
2022-09-05T04:08:23.726Z,97500.28
2022-09-05T04:09:11.847Z,97491.59
2022-09-05T04:10:27.159Z,97497.88
2022-09-05T04:11:39.585Z,97497.88
2022-09-05T04:12:41.344Z,97498.09
2022-09-05T04:13:46.154Z,97503.94
2022-09-05T04:14:51.168Z,97502.13
2022-09-05T04:16:15.395Z,97506.94
2022-09-05T04:17:36.343Z,97502.91
2022-09-05T04:18:43.082Z,97506.78
2022-09-05T04:19:50.827Z,97509.44
2022-09-05T04:20:55.986Z,97512.66
2022-09-05T04:22:03.910Z,97512.84
2022-09-05T04:23:27.192Z,97506.78
2022-09-05T04:24:33.798Z,97514.78
2022-09-05T04:25:58.495Z,97512.00
2022-09-05T04:27:27.695Z,97513.53
2022-09-05T04:28:41.302Z,97512.53
2022-09-05T04:30:06.569Z,97508.44
2022-09-05T04:31:31.059Z,97515.44
2022-09-05T04:32:54.761Z,97512.25
2022-09-05T04:34:18.135Z,97512.88
2022-09-05T04:35:29.197Z,97515.28
2022-09-05T04:36:33.849Z,97517.72
2022-09-05T04:37:48.899Z,97517.50
2022-09-05T04:39:08.670Z,97520.13
2022-09-05T04:40:33.512Z,97518.88
2022-09-05T04:41:55.613Z,97519.69
2022-09-05T04:43:01.005Z,97524.94
2022-09-05T04:44:07.887Z,97523.34
2022-09-05T04:45:12.220Z,97521.13
2022-09-05T04:46:25.318Z,97522.59
2022-09-05T04:47:39.155Z,97529.91
2022-09-05T04:48:48.375Z,97533.59
2022-09-05T04:49:53.171Z,97525.69
2022-09-05T04:51:04.438Z,97519.84
2022-09-05T04:52:30.841Z,97525.53
2022-09-05T04:53:37.675Z,97521.88
2022-09-05T04:54:51.576Z,97523.09
2022-09-05T04:55:58.069Z,97523.69
2022-09-05T04:57:13.624Z,97522.28
2022-09-05T04:58:50.758Z,97518.63
2022-09-05T05:05:58.426Z,97526.50
2022-09-05T05:06:01.307Z,97527.75
2022-09-05T05:06:02.822Z,97523.88
2022-09-05T05:06:05.906Z,97530.97
2022-09-05T05:06:10.851Z,97532.22
2022-09-05T05:07:07.736Z,97533.69
2022-09-05T05:08:38.155Z,97531.25
2022-09-05T05:09:45.040Z,97531.47
2022-09-05T05:15:51.598Z,97529.22
2022-09-05T05:17:58.509Z,97533.47
2022-09-05T05:17:59.391Z,97529.00
2022-09-05T05:18:00.362Z,97523.16
2022-09-05T05:18:12.192Z,97529.00
2022-09-05T05:18:36.684Z,97534.84
2022-09-05T05:20:39.326Z,97543.41
2022-09-05T05:21:18.310Z,97532.44
2022-09-05T05:22:20.427Z,97535.66
2022-09-05T05:23:40.159Z,97547.22
2022-09-05T05:24:44.058Z,97546.97
2022-09-05T05:25:45.874Z,97538.28
2022-09-05T05:26:57.263Z,97540.69
2022-09-05T05:28:24.072Z,97551.06
2022-09-05T05:29:29.458Z,97548.44
2022-09-05T05:30:33.399Z,97546.84
2022-09-05T05:31:38.822Z,97540.78
2022-09-05T05:32:46.872Z,97540.53
2022-09-05T05:33:50.558Z,97552.69
2022-09-05T05:34:57.879Z,97543.75
2022-09-05T05:36:01.509Z,97550.06
2022-09-05T05:37:16.375Z,97550.06
2022-09-05T05:38:25.186Z,97552.69
2022-09-05T05:39:28.751Z,97547.44
2022-09-05T05:40:41.352Z,97539.75
2022-09-05T05:41:54.459Z,97551.50
2022-09-05T05:43:13.700Z,97551.50
2022-09-05T05:44:17.820Z,97544.78
2022-09-05T05:45:19.598Z,97549.00
2022-09-05T05:46:41.458Z,97545.38
2022-09-05T05:47:44.915Z,97548.59
2022-09-05T05:48:53.789Z,97551.00
2022-09-05T05:49:59.451Z,97542.91
2022-09-05T05:51:34.553Z,97546.16
2022-09-05T05:53:02.636Z,97544.53
2022-09-05T05:54:04.405Z,97541.31
2022-09-05T05:55:51.798Z,97545.97
2022-09-05T05:57:10.304Z,97548.22
2022-09-05T05:58:52.317Z,97538.94
2022-09-05T06:00:01.476Z,97533.81
2022-09-05T06:01:32.948Z,97531.78
2022-09-05T06:02:39.487Z,97533.22
2022-09-05T06:04:00.141Z,97535.84
2022-09-05T06:05:14.162Z,97540.91
2022-09-05T06:06:15.973Z,97538.03
2022-09-05T06:08:31.879Z,97534.81
2022-09-05T06:14:49.504Z,97535.19
2022-09-05T06:14:55.252Z,97534.75
2022-09-05T06:14:57.484Z,97543.88
2022-09-05T06:15:06.396Z,97542.06
2022-09-05T06:15:53.031Z,97546.06
2022-09-05T06:17:17.015Z,97540.34
2022-09-05T06:18:31.456Z,97538.78
2022-09-05T06:20:53.054Z,97542.28
2022-09-05T06:22:09.436Z,97538.84
2022-09-05T06:22:55.254Z,97539.44
2022-09-05T06:24:01.023Z,97540.34
2022-09-05T06:25:16.998Z,97542.78
2022-09-05T06:26:25.733Z,97533.22
2022-09-05T06:27:27.930Z,97537.00
2022-09-05T06:28:31.098Z,97534.97
2022-09-05T06:29:55.972Z,97530.66
2022-09-05T06:31:29.499Z,97539.50
2022-09-05T06:32:58.087Z,97539.19
2022-09-05T06:34:27.917Z,97544.00
2022-09-05T06:35:52.950Z,97540.69
2022-09-05T06:37:16.592Z,97544.16
2022-09-05T06:38:28.429Z,97545.53
2022-09-05T06:39:35.968Z,97534.09
2022-09-05T06:40:51.350Z,97548.06
2022-09-05T06:42:07.424Z,97536.53
2022-09-05T06:43:37.220Z,97535.63
2022-09-05T06:45:09.056Z,97540.38
2022-09-05T06:46:55.367Z,97537.84
2022-09-05T06:48:23.804Z,97542.00
2022-09-05T06:49:59.069Z,97539.38
2022-09-05T06:51:26.316Z,97539.00
2022-09-05T06:52:37.645Z,97531.09
2022-09-05T06:54:08.688Z,97538.09
2022-09-05T06:55:13.533Z,97536.41
2022-09-05T06:56:25.688Z,97540.41
2022-09-05T06:57:38.641Z,97548.69
2022-09-05T06:59:01.372Z,97537.72
2022-09-05T07:00:24.145Z,97538.63
2022-09-05T07:01:55.238Z,97542.91
2022-09-05T07:03:07.730Z,97540.47
2022-09-05T07:05:24.708Z,97540.84
2022-09-05T07:06:05.066Z,97541.97
2022-09-05T07:07:09.317Z,97546.00
2022-09-05T07:08:35.681Z,97546.34
2022-09-05T07:09:38.918Z,97541.22
2022-09-05T07:10:44.961Z,97545.81
2022-09-05T07:11:59.359Z,97541.53
2022-09-05T07:13:21.486Z,97541.91
2022-09-05T07:14:25.232Z,97542.47
2022-09-05T07:15:27.834Z,97537.78
2022-09-05T07:16:44.389Z,97547.88
2022-09-05T07:18:13.726Z,97538.00
2022-09-05T07:19:34.290Z,97537.09
2022-09-05T07:21:15.599Z,97539.84
2022-09-05T07:22:06.491Z,97537.22
2022-09-05T07:24:07.014Z,97544.44
2022-09-05T07:25:09.286Z,97537.09
2022-09-05T07:26:13.214Z,97535.81
2022-09-05T07:27:41.840Z,97535.94
2022-09-05T07:29:00.864Z,97534.66
2022-09-05T07:30:05.085Z,97531.81
2022-09-05T07:31:10.679Z,97541.88
2022-09-05T07:32:15.956Z,97537.75
2022-09-05T07:33:22.758Z,97542.59
2022-09-05T07:34:27.769Z,97539.94
2022-09-05T07:35:41.830Z,97534.88
2022-09-05T07:36:47.699Z,97535.47
2022-09-05T07:37:57.342Z,97532.94
2022-09-05T07:39:25.140Z,97524.53
2022-09-05T07:40:26.621Z,97527.75
2022-09-05T07:41:39.731Z,97531.78
2022-09-05T07:42:49.927Z,97527.91
2022-09-05T07:44:17.522Z,97529.63
2022-09-05T07:45:25.454Z,97521.78
2022-09-05T07:46:31.054Z,97527.88
2022-09-05T07:47:35.909Z,97523.63
2022-09-05T07:48:40.287Z,97527.06
2022-09-05T07:50:07.801Z,97526.03
2022-09-05T07:56:46.167Z,97525.91
2022-09-05T07:56:56.723Z,97531.94
2022-09-05T07:56:58.899Z,97522.81
2022-09-05T07:57:09.515Z,97526.28
2022-09-05T07:57:10.687Z,97520.84
2022-09-05T07:58:08.067Z,97532.69
2022-09-05T07:59:14.041Z,97530.88
2022-09-05T08:00:25.614Z,97524.31
2022-09-05T08:01:31.122Z,97529.13
2022-09-05T08:02:47.038Z,97526.00
2022-09-05T08:03:56.394Z,97520.00
2022-09-05T08:05:02.911Z,97512.41
2022-09-05T08:06:11.525Z,97527.00
2022-09-05T08:07:48.971Z,97523.09
2022-09-05T08:09:21.913Z,97525.81
2022-09-05T08:11:00.540Z,97525.59
2022-09-05T08:12:09.423Z,97520.06
2022-09-05T08:13:23.592Z,97519.56
2022-09-05T08:14:45.843Z,97517.50
2022-09-05T08:16:10.997Z,97520.88
2022-09-05T08:17:17.836Z,97522.47
2022-09-05T08:18:37.100Z,97514.28
2022-09-05T08:19:38.945Z,97515.59
2022-09-05T08:20:40.746Z,97515.47
2022-09-05T08:21:50.943Z,97511.84
2022-09-05T08:22:59.424Z,97518.00
2022-09-05T08:24:01.200Z,97516.72
2022-09-05T08:25:19.485Z,97510.91
2022-09-05T08:26:31.315Z,97511.00
2022-09-05T08:27:45.155Z,97506.09
2022-09-05T08:29:05.946Z,97510.06
2022-09-05T08:30:26.203Z,97505.38
2022-09-05T08:31:35.836Z,97512.34
2022-09-05T08:32:44.560Z,97499.59
2022-09-05T08:33:48.573Z,97503.91
2022-09-05T08:35:02.998Z,97501.25
2022-09-05T08:36:10.887Z,97496.72
2022-09-05T08:37:21.265Z,97497.25
2022-09-05T08:38:24.605Z,97498.06
2022-09-05T08:39:29.711Z,97499.16
2022-09-05T08:40:36.276Z,97499.72
2022-09-05T08:41:59.825Z,97499.25
2022-09-05T08:44:58.247Z,97493.44
2022-09-05T08:46:43.402Z,97489.78
2022-09-05T08:46:49.082Z,97486.91
2022-09-05T08:48:11.962Z,97486.41
2022-09-05T08:49:37.833Z,97490.41
2022-09-05T08:50:45.168Z,97494.41
2022-09-05T08:51:57.668Z,97488.88
2022-09-05T08:53:02.491Z,97487.88
2022-09-05T08:54:16.822Z,97485.53
2022-09-05T08:55:30.851Z,97484.78
2022-09-05T08:56:48.064Z,97490.63
2022-09-05T08:58:01.209Z,97488.03
2022-09-05T08:59:28.099Z,97488.03
2022-09-05T09:00:36.298Z,97484.88
2022-09-05T09:01:44.552Z,97478.03
2022-09-05T09:03:12.985Z,97475.94
2022-09-05T09:04:50.284Z,97477.53
2022-09-05T09:06:14.407Z,97477.34
2022-09-05T09:07:51.193Z,97477.13
2022-09-05T09:09:05.115Z,97472.66
2022-09-05T09:10:25.949Z,97468.25
2022-09-05T09:11:31.896Z,97473.81
2022-09-05T09:12:33.801Z,97476.53
2022-09-05T09:13:56.156Z,97477.63
2022-09-05T09:15:11.662Z,97472.63
2022-09-05T09:16:34.140Z,97477.94
2022-09-05T09:17:46.234Z,97466.78
2022-09-05T09:18:48.100Z,97466.84
2022-09-05T09:20:10.333Z,97469.53
2022-09-05T09:21:24.615Z,97465.84
2022-09-05T09:22:37.377Z,97468.56
2022-09-05T09:23:42.142Z,97468.25
2022-09-05T09:25:16.127Z,97471.44
2022-09-05T09:26:22.465Z,97461.94
2022-09-05T09:28:48.711Z,97469.13
2022-09-05T09:29:08.451Z,97463.84
2022-09-05T09:30:12.383Z,97464.91
2022-09-05T09:31:20.422Z,97467.03
2022-09-05T09:32:26.529Z,97466.81
2022-09-05T09:33:37.764Z,97463.44
2022-09-05T09:34:49.257Z,97463.78
2022-09-05T09:35:54.362Z,97459.28
2022-09-05T09:37:12.373Z,97464.63
2022-09-05T09:38:25.778Z,97452.44
2022-09-05T09:39:38.864Z,97458.81
2022-09-05T09:41:03.080Z,97449.03
2022-09-05T09:42:18.977Z,97460.72
2022-09-05T09:43:54.324Z,97450.63
2022-09-05T09:44:56.314Z,97454.66
2022-09-05T09:46:04.087Z,97446.19
2022-09-05T09:47:11.124Z,97444.28
2022-09-05T09:48:31.624Z,97449.88
2022-09-05T09:49:44.515Z,97441.66
2022-09-05T09:51:00.671Z,97444.63
2022-09-05T09:52:05.819Z,97438.25
2022-09-05T09:53:37.242Z,97440.66
2022-09-05T09:54:51.404Z,97441.78
2022-09-05T09:56:16.063Z,97433.00
2022-09-05T09:57:17.824Z,97435.69
2022-09-05T09:58:29.513Z,97433.78
2022-09-05T09:59:31.493Z,97436.47
2022-09-05T10:00:53.455Z,97436.47
2022-09-05T10:04:31.342Z,97425.03
2022-09-05T10:10:36.060Z,97435.91
2022-09-05T10:10:38.700Z,97432.19
2022-09-05T10:10:48.189Z,97437.78
2022-09-05T10:10:53.063Z,97430.31
2022-09-05T10:11:08.705Z,97428.44
2022-09-05T10:12:19.249Z,97428.16
2022-09-05T10:13:23.987Z,97423.88
2022-09-05T10:14:51.103Z,97436.66
2022-09-05T10:15:53.151Z,97433.94
2022-09-05T10:17:13.970Z,97427.84
2022-09-05T10:18:34.815Z,97429.94
2022-09-05T10:21:16.709Z,97421.31
2022-09-05T10:22:38.156Z,97425.53
2022-09-05T10:23:47.093Z,97425.53
2022-09-05T10:25:19.298Z,97423.88
2022-09-05T10:26:27.655Z,97427.78
2022-09-05T10:27:39.591Z,97425.34
2022-09-05T10:28:55.781Z,97413.00
2022-09-05T10:30:29.515Z,97411.91
2022-09-05T10:34:47.562Z,97410.72
2022-09-05T10:35:13.965Z,97410.16
2022-09-05T10:35:17.388Z,97403.41
2022-09-05T10:36:23.647Z,97408.13
2022-09-05T10:37:40.633Z,97407.78
2022-09-05T10:38:45.088Z,97398.88
2022-09-05T10:39:52.978Z,97397.75
2022-09-05T10:41:20.311Z,97398.25
2022-09-05T10:42:31.679Z,97396.34
2022-09-05T10:43:44.541Z,97386.59
2022-09-05T10:44:49.462Z,97397.75
2022-09-05T10:45:54.323Z,97395.75
2022-09-05T10:46:59.304Z,97386.56
2022-09-05T10:48:21.320Z,97390.03
2022-09-05T10:49:30.459Z,97394.00
2022-09-05T10:50:46.052Z,97385.94
2022-09-05T10:52:07.008Z,97388.25
2022-09-05T10:53:40.170Z,97380.97
2022-09-05T10:54:42.086Z,97382.22
2022-09-05T10:55:43.932Z,97380.81
2022-09-05T10:56:48.330Z,97379.66
2022-09-05T10:57:55.943Z,97377.22
2022-09-05T11:01:48.569Z,97378.78
2022-09-05T11:02:20.877Z,97374.94
2022-09-05T11:02:26.037Z,97378.56
2022-09-05T11:03:47.883Z,97372.59
2022-09-05T11:04:55.742Z,97368.75
2022-09-05T11:05:59.079Z,97359.84
2022-09-05T11:07:14.545Z,97359.34
2022-09-05T11:08:25.512Z,97364.13
2022-09-05T11:09:27.316Z,97367.31
2022-09-05T11:10:33.910Z,97367.53
2022-09-05T11:11:46.330Z,97362.69
2022-09-05T11:13:06.590Z,97358.44
2022-09-05T11:14:27.034Z,97359.88
2022-09-05T11:15:57.245Z,97359.31
2022-09-05T11:17:24.630Z,97354.38
2022-09-05T11:18:56.446Z,97360.13
2022-09-05T11:20:06.030Z,97361.13
2022-09-05T11:21:16.227Z,97348.72
2022-09-05T11:22:22.400Z,97360.75
2022-09-05T11:23:33.384Z,97353.22
2022-09-05T11:24:36.700Z,97357.16
2022-09-05T11:25:41.231Z,97360.63
2022-09-05T11:26:51.434Z,97360.84
2022-09-05T11:28:19.294Z,97346.47
2022-09-05T11:29:44.173Z,97354.00
2022-09-05T11:30:51.473Z,97353.00
2022-09-05T11:36:14.676Z,97355.19
2022-09-05T11:39:26.297Z,97353.97
2022-09-05T11:39:47.612Z,97348.81
2022-09-05T11:39:56.619Z,97348.06
2022-09-05T11:40:06.078Z,97356.28
2022-09-05T11:40:28.409Z,97344.75
2022-09-05T11:41:20.511Z,97345.41
2022-09-05T11:42:41.836Z,97338.78
2022-09-05T11:44:25.042Z,97343.53
2022-09-05T11:45:41.784Z,97339.38
2022-09-05T11:46:59.381Z,97343.56
2022-09-05T11:48:35.468Z,97343.38
2022-09-05T11:50:02.198Z,97339.03
2022-09-05T11:51:10.720Z,97345.84
2022-09-05T11:52:25.108Z,97346.34
2022-09-05T11:53:30.040Z,97343.75
2022-09-05T11:55:08.556Z,97342.78
2022-09-05T11:56:29.272Z,97336.94
2022-09-05T11:57:36.771Z,97337.94
2022-09-05T11:58:45.053Z,97341.59
2022-09-05T12:00:32.016Z,97342.31
2022-09-05T12:01:41.227Z,97345.47
2022-09-05T12:03:01.474Z,97337.53
2022-09-05T12:04:08.078Z,97339.81
2022-09-05T12:05:48.478Z,97340.72
2022-09-05T12:07:30.503Z,97339.72
2022-09-05T12:08:44.722Z,97332.34
2022-09-05T12:10:03.329Z,97341.06
2022-09-05T12:11:23.641Z,97331.31
2022-09-05T12:12:41.617Z,97330.59
2022-09-05T12:13:51.331Z,97335.25
2022-09-05T12:15:11.500Z,97338.63
2022-09-05T12:16:26.845Z,97342.78
2022-09-05T12:17:47.692Z,97326.09
2022-09-05T12:19:19.312Z,97330.44
2022-09-05T12:20:24.943Z,97333.78
2022-09-05T12:21:37.646Z,97324.50
2022-09-05T12:22:47.631Z,97328.00
2022-09-05T12:25:15.476Z,97329.28
2022-09-05T12:27:36.365Z,97320.47
2022-09-05T12:27:40.932Z,97323.28
2022-09-05T12:29:27.968Z,97319.56
2022-09-05T12:30:14.184Z,97319.28
2022-09-05T12:32:36.635Z,97311.41
2022-09-05T12:36:01.414Z,97318.06
2022-09-05T12:36:07.972Z,97325.41
2022-09-05T12:40:21.417Z,97311.06
2022-09-05T12:40:35.594Z,97328.91
2022-09-05T12:40:58.390Z,97321.16
2022-09-05T12:41:36.240Z,97317.72
2022-09-05T12:42:14.475Z,97314.94
2022-09-05T12:44:20.886Z,97312.56
2022-09-05T12:44:46.639Z,97313.38
2022-09-05T12:46:24.297Z,97320.97
2022-09-05T12:47:30.298Z,97319.59
2022-09-05T12:48:38.995Z,97313.59
2022-09-05T12:49:52.114Z,97309.66
2022-09-05T12:50:55.045Z,97321.69
2022-09-05T12:52:11.081Z,97315.81
2022-09-05T12:53:19.045Z,97312.84
2022-09-05T12:54:34.153Z,97313.03
2022-09-05T12:55:40.940Z,97312.84
2022-09-05T13:00:41.120Z,97316.75
2022-09-05T13:03:01.068Z,97317.53
2022-09-05T13:03:02.255Z,97308.69
2022-09-05T13:03:14.741Z,97316.75
2022-09-05T13:03:15.400Z,97315.81
2022-09-05T13:04:18.228Z,97314.06
2022-09-05T13:05:27.313Z,97315.81
2022-09-05T13:06:31.508Z,97315.41
2022-09-05T13:07:49.288Z,97314.63
2022-09-05T13:08:59.391Z,97311.31
2022-09-05T13:11:24.130Z,97312.25
2022-09-05T13:14:58.897Z,97321.44
2022-09-05T13:15:03.005Z,97308.97
2022-09-05T13:15:03.095Z,97313.38
2022-09-05T13:15:55.457Z,97310.06
2022-09-05T13:16:58.429Z,97308.66
2022-09-05T13:18:12.173Z,97316.88
2022-09-05T13:19:32.538Z,97320.66
2022-09-05T13:20:36.951Z,97308.44
2022-09-05T13:21:41.190Z,97304.09
2022-09-05T13:22:48.931Z,97310.50
2022-09-05T13:24:01.864Z,97307.44
2022-09-05T13:25:08.585Z,97306.53
2022-09-05T13:26:24.793Z,97303.03
2022-09-05T13:27:30.004Z,97305.84
2022-09-05T13:28:37.689Z,97304.56
2022-09-05T13:30:56.408Z,97298.91
2022-09-05T13:37:54.575Z,97308.41
2022-09-05T13:38:17.619Z,97308.22
2022-09-05T13:38:20.787Z,97308.88
2022-09-05T13:38:21.158Z,97302.66
2022-09-05T13:38:42.044Z,97305.25
2022-09-05T13:38:48.935Z,97304.47
2022-09-05T13:39:52.204Z,97307.53
2022-09-05T13:40:58.548Z,97306.28
2022-09-05T13:42:03.889Z,97302.19
2022-09-05T13:43:10.903Z,97301.56
2022-09-05T13:44:26.303Z,97297.34
2022-09-05T13:45:30.271Z,97293.91
2022-09-05T13:46:34.953Z,97297.84
2022-09-05T13:47:42.627Z,97300.25
2022-09-05T13:50:24.423Z,97295.16
2022-09-05T13:51:31.728Z,97297.28
2022-09-05T13:52:40.099Z,97299.47
2022-09-05T13:53:52.049Z,97297.91
2022-09-05T13:55:00.868Z,97296.03
2022-09-05T13:56:21.733Z,97293.53
2022-09-05T13:57:36.554Z,97294.31
2022-09-05T13:58:51.006Z,97294.50
2022-09-05T14:00:26.950Z,97292.56
2022-09-05T14:02:07.737Z,97293.50
2022-09-05T14:03:37.630Z,97294.91
2022-09-05T14:05:16.257Z,97295.84
2022-09-05T14:06:46.604Z,97285.91
2022-09-05T14:08:11.622Z,97288.66
2022-09-05T14:09:37.933Z,97289.47
2022-09-05T14:10:52.249Z,97295.03
2022-09-05T14:11:57.612Z,97288.38
2022-09-05T14:13:02.463Z,97282.19
2022-09-05T14:14:11.548Z,97282.69
2022-09-05T14:15:19.374Z,97285.38
2022-09-05T14:16:31.730Z,97279.28
2022-09-05T14:17:54.174Z,97290.03
2022-09-05T14:19:15.253Z,97277.22
2022-09-05T14:20:36.631Z,97279.72
2022-09-05T14:21:40.892Z,97284.03
2022-09-05T14:22:55.431Z,97279.91
2022-09-05T14:24:03.542Z,97279.59
2022-09-05T14:25:10.891Z,97284.88
2022-09-05T14:26:16.314Z,97283.63
2022-09-05T14:27:26.367Z,97281.28
2022-09-05T14:28:36.783Z,97276.38
2022-09-05T14:30:35.560Z,97274.31
2022-09-05T14:37:37.130Z,97280.19
2022-09-05T14:37:42.573Z,97277.78
2022-09-05T14:37:43.663Z,97275.91
2022-09-05T14:37:44.261Z,97277.47
2022-09-05T14:38:05.659Z,97270.03
2022-09-05T14:39:23.234Z,97274.06
2022-09-05T14:40:37.639Z,97278.44
2022-09-05T14:42:09.388Z,97274.75
2022-09-05T14:43:30.989Z,97271.22
2022-09-05T14:45:01.821Z,97265.19
2022-09-05T14:46:20.348Z,97274.88
2022-09-05T14:47:37.779Z,97269.75
2022-09-05T14:48:39.648Z,97268.72
2022-09-05T14:49:56.758Z,97273.03
2022-09-05T14:51:14.655Z,97271.13
2022-09-05T14:52:29.527Z,97273.59
2022-09-05T14:57:22.876Z,97272.66
2022-09-05T15:02:41.036Z,97271.97
2022-09-05T15:02:47.776Z,97268.09
2022-09-05T15:02:47.776Z,97271.75
2022-09-05T15:02:49.862Z,97264.03
2022-09-05T15:05:11.777Z,97268.03
2022-09-05T15:06:16.073Z,97264.97
2022-09-05T15:07:36.653Z,97263.50
2022-09-05T15:11:25.694Z,97263.38
2022-09-05T15:11:47.259Z,97262.41
2022-09-05T15:12:23.478Z,97268.00
2022-09-05T15:13:17.193Z,97270.06
2022-09-05T15:14:20.086Z,97268.75
2022-09-05T15:15:29.128Z,97266.16